createdAt,value
2018-12-22T00:00:00.136Z,7.00
2018-12-22T01:09:46.362Z,5.97
2018-12-22T01:16:44.703Z,6.10
2018-12-22T01:46:08.927Z,6.20
2018-12-22T01:53:13.795Z,6.30
2018-12-22T01:56:04.311Z,6.07
2018-12-22T02:06:41.808Z,6.57
2018-12-22T02:09:53.894Z,5.50
2018-12-22T02:25:01.496Z,5.83
2018-12-22T02:30:56.228Z,4.80
2018-12-22T02:34:01.199Z,4.30
2018-12-22T02:40:31.743Z,5.07
2018-12-22T02:43:16.808Z,4.63
2018-12-22T02:58:04.615Z,3.80
2018-12-22T03:18:53.249Z,4.33
2018-12-22T03:22:05.198Z,3.83
2018-12-22T03:37:21.356Z,5.03
2018-12-22T03:43:51.062Z,5.87
2018-12-22T03:46:34.862Z,5.70
2018-12-22T03:49:13.742Z,5.50
2018-12-22T03:52:21.726Z,5.47
2018-12-22T03:55:02.374Z,5.30
2018-12-22T03:57:44.313Z,5.60
2018-12-22T04:00:20.031Z,5.60
2018-12-22T04:03:01.418Z,5.67
2018-12-22T04:05:52.394Z,6.27
2018-12-22T04:08:22.514Z,5.63
2018-12-22T04:14:59.516Z,5.50
2018-12-22T04:17:36.084Z,5.53
2018-12-22T04:20:11.515Z,5.37
2018-12-22T04:22:54.560Z,5.60
2018-12-22T04:25:29.727Z,4.70
2018-12-22T04:32:01.977Z,4.47
2018-12-22T04:34:42.715Z,4.33
2018-12-22T04:37:21.603Z,4.87
2018-12-22T04:40:08.361Z,5.27
2018-12-22T04:42:45.370Z,4.13
2018-12-22T04:45:20.209Z,4.30
2018-12-22T04:48:00.501Z,4.60
2018-12-22T04:51:12.214Z,4.87
2018-12-22T04:54:05.133Z,5.30
2018-12-22T04:56:47.913Z,5.50
2018-12-22T05:03:35.869Z,5.13
2018-12-22T05:06:08.573Z,5.50
2018-12-22T05:08:42.933Z,4.87
2018-12-22T05:11:19.171Z,5.83
2018-12-22T05:14:09.811Z,5.73
2018-12-22T05:20:33.010Z,6.00
2018-12-22T05:23:15.198Z,4.97
2018-12-22T05:26:05.913Z,4.20
2018-12-22T05:28:47.487Z,2.97
2018-12-22T05:39:38.067Z,0.50
2018-12-22T05:42:15.916Z,0.40
2018-12-22T05:44:57.532Z,0.50
2018-12-22T05:47:28.023Z,0.63
2018-12-22T05:54:36.910Z,0.40
2018-12-22T05:57:13.102Z,0.50
2018-12-22T05:59:47.246Z,0.50
2018-12-22T06:02:29.360Z,0.63
2018-12-22T06:05:22.238Z,0.40
2018-12-22T06:08:00.340Z,0.60
2018-12-22T06:10:32.266Z,0.50
2018-12-22T06:13:13.137Z,0.63
2018-12-22T06:19:50.108Z,1.03
2018-12-22T06:22:31.461Z,0.63
2018-12-22T06:25:10.150Z,0.53
2018-12-22T06:27:49.984Z,0.80
2018-12-22T06:30:27.918Z,0.70
2018-12-22T06:32:59.185Z,0.57
2018-12-22T06:35:30.983Z,0.90
2018-12-22T06:38:01.115Z,0.80
2018-12-22T06:40:33.923Z,1.27
2018-12-22T06:43:04.756Z,0.80
2018-12-22T06:45:35.055Z,1.00
2018-12-22T06:48:05.225Z,1.50
2018-12-22T06:50:37.063Z,2.55
2018-12-22T06:53:07.885Z,13.18
2018-12-22T06:55:38.345Z,4.20
2018-12-22T06:58:09.066Z,2.50
2018-12-22T07:00:39.858Z,3.63
2018-12-22T07:03:10.731Z,2.40
2018-12-22T07:05:41.241Z,1.73
2018-12-22T07:08:12.481Z,2.47
2018-12-22T07:10:43.388Z,2.33
2018-12-22T07:13:13.848Z,1.80
2018-12-22T07:15:44.155Z,2.83
2018-12-22T07:18:14.180Z,2.87
2018-12-22T07:20:45.266Z,1.60
2018-12-22T07:23:22.019Z,0.90
2018-12-22T07:25:53.233Z,1.30
2018-12-22T07:28:23.275Z,2.30
2018-12-22T07:30:54.698Z,1.00
2018-12-22T07:33:27.399Z,1.50
2018-12-22T07:36:01.640Z,1.30
2018-12-22T07:38:32.571Z,1.10
2018-12-22T07:41:05.296Z,1.00
2018-12-22T07:43:36.437Z,1.20
2018-12-22T07:46:13.734Z,1.30
2018-12-22T07:48:44.384Z,2.40
2018-12-22T07:51:21.282Z,1.22
2018-12-22T07:53:51.504Z,2.77
2018-12-22T07:56:30.378Z,4.07
2018-12-22T07:59:01.545Z,2.55
2018-12-22T08:01:35.204Z,2.13
2018-12-22T08:04:05.403Z,1.90
2018-12-22T08:06:36.335Z,3.93
2018-12-22T08:09:08.776Z,4.57
2018-12-22T08:11:41.505Z,6.40
2018-12-22T08:14:14.480Z,7.00
2018-12-22T08:16:45.510Z,4.00
2018-12-22T08:19:16.427Z,4.60
2018-12-22T08:21:46.538Z,3.80
2018-12-22T08:24:17.414Z,16.50
2018-12-22T08:26:47.412Z,6.00
2018-12-22T08:29:18.393Z,4.70
2018-12-22T08:31:48.444Z,4.75
2018-12-22T08:34:19.364Z,2.50
2018-12-22T08:36:49.771Z,4.30
2018-12-22T08:39:20.416Z,3.37
2018-12-22T08:41:50.516Z,4.10
2018-12-22T08:44:21.789Z,2.93
2018-12-22T08:46:53.130Z,7.80
2018-12-22T08:49:23.310Z,2.83
2018-12-22T08:51:53.321Z,4.90
2018-12-22T08:54:23.569Z,4.03
2018-12-22T08:56:54.582Z,2.08
2018-12-22T08:59:25.075Z,2.00
2018-12-22T09:02:01.720Z,1.50
2018-12-22T09:04:37.005Z,1.50
2018-12-22T09:07:15.957Z,1.30
2018-12-22T09:09:48.715Z,1.17
2018-12-22T09:12:19.881Z,0.93
2018-12-22T09:14:50.702Z,1.20
2018-12-22T09:17:23.838Z,1.10
2018-12-22T09:22:40.405Z,1.20
2018-12-22T09:25:15.224Z,1.00
2018-12-22T09:27:48.471Z,1.63
2018-12-22T09:30:21.710Z,1.00
2018-12-22T09:32:52.695Z,0.90
2018-12-22T09:35:23.994Z,0.80
2018-12-22T09:37:57.339Z,0.70
2018-12-22T09:40:27.847Z,1.17
2018-12-22T09:42:58.627Z,0.83
2018-12-22T09:45:29.825Z,1.00
2018-12-22T09:48:01.831Z,0.90
2018-12-22T09:50:43.071Z,1.47
2018-12-22T09:53:23.379Z,1.10
2018-12-22T09:55:54.917Z,1.10
2018-12-22T09:58:28.833Z,1.10
2018-12-22T10:00:59.995Z,1.00
2018-12-22T10:03:35.913Z,1.13
2018-12-22T10:06:07.984Z,1.00
2018-12-22T10:08:41.038Z,1.07
2018-12-22T10:11:12.566Z,1.20
2018-12-22T10:13:45.011Z,1.60
2018-12-22T10:16:18.799Z,1.20
2018-12-22T10:18:50.131Z,1.10
2018-12-22T10:21:23.024Z,1.37
2018-12-22T10:23:54.378Z,1.20
2018-12-22T10:26:24.986Z,1.20
2018-12-22T10:29:00.066Z,1.12
2018-12-22T10:31:32.212Z,1.30
2018-12-22T10:34:02.943Z,1.30
2018-12-22T10:36:34.112Z,1.20
2018-12-22T10:39:07.031Z,1.30
2018-12-22T10:41:38.291Z,1.40
2018-12-22T10:44:08.438Z,1.33
2018-12-22T10:46:39.260Z,1.47
2018-12-22T10:49:16.006Z,1.10
2018-12-22T10:51:46.267Z,1.10
2018-12-22T10:54:19.925Z,1.17
2018-12-22T10:56:50.294Z,0.90
2018-12-22T10:59:21.519Z,0.80
2018-12-22T11:01:52.940Z,0.90
2018-12-22T11:04:25.179Z,0.90
2018-12-22T11:07:28.884Z,1.27
2018-12-22T11:10:00.283Z,0.90
2018-12-22T11:12:31.132Z,0.80
2018-12-22T11:15:01.352Z,0.90
2018-12-22T11:17:32.429Z,1.07
2018-12-22T11:20:03.655Z,1.40
2018-12-22T11:22:37.997Z,0.70
2018-12-22T11:25:19.428Z,0.87
2018-12-22T11:27:57.964Z,1.20
2018-12-22T11:30:35.972Z,1.10
2018-12-22T11:33:12.031Z,1.00
2018-12-22T11:35:48.832Z,1.40
2018-12-22T11:38:28.994Z,1.40
2018-12-22T11:41:15.080Z,1.20
2018-12-22T11:44:06.435Z,1.17
2018-12-22T11:46:38.967Z,0.90
2018-12-22T11:49:43.687Z,0.93
2018-12-22T11:52:20.829Z,0.70
2018-12-22T11:54:55.932Z,0.90
2018-12-22T11:57:35.293Z,1.10
2018-12-22T12:00:19.032Z,0.90
2018-12-22T12:02:55.234Z,1.00
2018-12-22T12:05:36.136Z,1.43
2018-12-22T12:08:07.147Z,1.00
2018-12-22T12:10:45.865Z,1.03
2018-12-22T12:13:17.432Z,1.00
2018-12-22T12:15:51.961Z,0.90
2018-12-22T12:18:49.209Z,0.93
2018-12-22T12:21:19.813Z,0.90
2018-12-22T12:23:55.189Z,0.87
2018-12-22T12:26:26.982Z,1.00
2018-12-22T12:29:14.223Z,0.97
2018-12-22T12:31:52.557Z,1.03
2018-12-22T12:34:33.777Z,1.10
2018-12-22T12:37:11.781Z,0.90
2018-12-22T12:39:55.660Z,0.93
2018-12-22T12:42:26.971Z,0.70
2018-12-22T12:45:06.403Z,0.93
2018-12-22T12:47:38.081Z,0.65
2018-12-22T12:50:11.353Z,1.10
2018-12-22T12:52:43.764Z,0.70
2018-12-22T12:55:14.706Z,0.87
2018-12-22T12:57:55.636Z,0.80
2018-12-22T13:00:41.235Z,0.80
2018-12-22T13:03:24.964Z,0.60
2018-12-22T13:06:05.952Z,0.60
2018-12-22T13:08:47.840Z,0.67
2018-12-22T13:11:18.617Z,0.70
2018-12-22T13:13:53.944Z,0.70
2018-12-22T13:16:35.718Z,0.60
2018-12-22T13:19:42.294Z,0.70
2018-12-22T13:22:36.208Z,0.90
2018-12-22T13:25:06.555Z,0.77
2018-12-22T13:27:38.084Z,1.00
2018-12-22T13:30:10.977Z,0.80
2018-12-22T13:32:56.463Z,1.00
2018-12-22T13:35:34.704Z,0.97
2018-12-22T13:38:10.685Z,1.27
2018-12-22T13:40:42.029Z,1.13
2018-12-22T13:43:17.449Z,1.10
2018-12-22T13:46:03.065Z,0.90
2018-12-22T13:48:40.803Z,0.90
2018-12-22T13:51:33.368Z,1.30
2018-12-22T13:54:24.101Z,1.30
2018-12-22T13:57:00.968Z,0.70
2018-12-22T13:59:34.030Z,0.80
2018-12-22T14:02:07.634Z,1.00
2018-12-22T14:04:56.551Z,1.00
2018-12-22T14:07:40.051Z,1.10
2018-12-22T14:10:19.948Z,1.40
2018-12-22T14:12:50.880Z,1.07
2018-12-22T14:15:23.211Z,1.05
2018-12-22T14:20:09.932Z,1.03
2018-12-22T14:22:41.087Z,1.43
2018-12-22T14:25:19.902Z,1.20
2018-12-22T14:27:52.118Z,1.53
2018-12-22T14:30:24.249Z,2.67
2018-12-22T14:32:56.199Z,1.30
2018-12-22T14:35:38.413Z,1.50
2018-12-22T14:38:09.339Z,1.77
2018-12-22T14:40:40.347Z,1.10
2018-12-22T14:43:12.174Z,1.10
2018-12-22T14:45:42.312Z,0.97
2018-12-22T14:48:15.137Z,0.90
2018-12-22T14:50:47.520Z,0.70
2018-12-22T14:53:23.465Z,0.80
2018-12-22T14:56:03.884Z,0.70
2018-12-22T14:58:36.252Z,1.20
2018-12-22T15:01:10.193Z,0.83
2018-12-22T15:03:41.362Z,1.50
2018-12-22T15:06:14.221Z,1.00
2018-12-22T15:08:49.696Z,1.20
2018-12-22T15:11:25.192Z,0.90
2018-12-22T15:13:55.350Z,0.77
2018-12-22T15:16:34.296Z,0.80
2018-12-22T15:19:07.128Z,0.83
2018-12-22T15:21:48.329Z,0.80
2018-12-22T15:24:22.344Z,1.23
2018-12-22T15:26:55.050Z,1.30
2018-12-22T15:29:29.560Z,1.07
2018-12-22T15:32:02.275Z,1.03
